Time;durP1;ratioP1;P1;durP2;ratioP2;P2;SDS_P1;SDS_P2;PMS_P1;PMS_P2;Temp;Humidity;BMP_temperature;BMP_pressure;BME280_temperature;BME280_humidity;BME280_pressure;Samples;Min_cycle;Max_cycle;Signal;HPM_P1;HPM_P2
2021/12/24 00:00:06;;;;;;;4.00;2.67;;;11.40;99.90;;;;;;5072076;28;20342;-58
2021/12/24 00:02:34;;;;;;;5.47;2.50;;;11.40;99.90;;;;;;5072059;28;20208;-58
2021/12/24 00:05:01;;;;;;;3.40;2.80;;;11.50;99.90;;;;;;5071980;28;20212;-58
2021/12/24 00:07:28;;;;;;;3.80;2.80;;;11.50;99.90;;;;;;5072177;28;20217;-58
2021/12/24 00:09:54;;;;;;;3.50;2.70;;;11.60;99.90;;;;;;5071767;28;20699;-58
2021/12/24 00:12:23;;;;;;;4.23;3.00;;;11.60;99.90;;;;;;5072261;28;20208;-58
2021/12/24 00:14:54;;;;;;;5.43;2.47;;;11.60;99.90;;;;;;5072087;28;20661;-58
2021/12/24 00:17:27;;;;;;;2.90;2.40;;;11.60;99.90;;;;;;5071882;28;20228;-58
2021/12/24 00:20:10;;;;;;;3.30;2.93;;;11.60;99.90;;;;;;5075879;28;20618;-58
2021/12/24 00:23:21;;;;;;;3.40;2.53;;;11.60;99.90;;;;;;5075776;28;20319;-58
2021/12/24 00:36:38;;;;;;;4.73;2.60;;;11.70;99.90;;;;;;5075269;28;20682;-58
2021/12/24 00:39:05;;;;;;;5.43;2.57;;;11.80;99.90;;;;;;5075296;28;20224;-58
2021/12/24 00:41:32;;;;;;;4.97;2.87;;;11.70;99.90;;;;;;5075716;28;20213;-58
2021/12/24 00:43:59;;;;;;;3.80;2.63;;;11.80;99.90;;;;;;5075378;28;20205;-58
2021/12/24 00:46:25;;;;;;;3.60;2.63;;;11.70;99.90;;;;;;5075125;28;20236;-58
2021/12/24 00:48:53;;;;;;;2.67;2.23;;;11.80;99.90;;;;;;5075015;28;20286;-58
2021/12/24 00:51:29;;;;;;;5.23;3.23;;;11.80;99.90;;;;;;5075059;28;20679;-58
2021/12/24 00:56:42;;;;;;;3.50;2.50;;;11.90;99.90;;;;;;5074963;28;20204;-58
2021/12/24 00:59:08;;;;;;;4.33;2.30;;;11.90;99.90;;;;;;5075181;28;20225;-58
2021/12/24 01:01:35;;;;;;;3.07;2.30;;;12.00;99.90;;;;;;5074922;28;20292;-58
2021/12/24 01:04:02;;;;;;;5.20;2.37;;;12.00;99.90;;;;;;5074671;28;20278;-58
2021/12/24 01:06:28;;;;;;;3.93;2.60;;;12.00;99.90;;;;;;5074792;28;20216;-58
2021/12/24 01:08:56;;;;;;;3.60;2.47;;;12.00;99.90;;;;;;5074895;28;20269;-58
2021/12/24 01:11:23;;;;;;;3.57;2.20;;;12.00;99.90;;;;;;5074928;28;20326;-58
2021/12/24 01:13:50;;;;;;;3.00;2.40;;;12.10;99.90;;;;;;5074793;28;20216;-58
2021/12/24 01:16:24;;;;;;;5.03;2.43;;;12.10;99.90;;;;;;5074791;28;20262;-58
2021/12/24 01:18:59;;;;;;;2.40;2.00;;;12.10;99.90;;;;;;5074558;28;20228;-58
2021/12/24 01:21:40;;;;;;;3.37;2.20;;;12.20;99.90;;;;;;5074547;28;20656;-58
2021/12/24 01:24:13;;;;;;;3.73;2.60;;;12.20;99.90;;;;;;5074645;28;20644;-58
2021/12/24 01:26:47;;;;;;;4.13;2.20;;;12.20;99.90;;;;;;5074351;28;20209;-60
2021/12/24 01:29:41;;;;;;;4.20;2.60;;;12.20;99.90;;;;;;5074222;28;20225;-58
2021/12/24 01:38:09;;;;;;;4.70;2.43;;;12.20;99.90;;;;;;5032271;28;20583;-58
2021/12/24 01:40:51;;;;;;;4.30;2.07;;;12.20;99.90;;;;;;5060951;28;20241;-59
2021/12/24 01:43:17;;;;;;;3.03;2.13;;;12.10;99.90;;;;;;5074296;28;20572;-58
2021/12/24 01:45:48;;;;;;;3.77;2.17;;;12.10;99.90;;;;;;5073798;28;20614;-58
2021/12/24 01:48:15;;;;;;;3.83;2.27;;;12.10;99.90;;;;;;5074383;28;20221;-58
2021/12/24 01:50:43;;;;;;;3.13;2.40;;;12.10;99.90;;;;;;5074220;28;20212;-59
2021/12/24 01:53:11;;;;;;;2.80;2.20;;;12.10;99.90;;;;;;5074325;28;20240;-58
2021/12/24 01:55:39;;;;;;;3.10;2.47;;;12.20;99.90;;;;;;5073837;28;20625;-58
2021/12/24 01:58:06;;;;;;;3.60;2.07;;;12.20;99.90;;;;;;5073856;28;20228;-58
2021/12/24 02:00:37;;;;;;;4.10;2.13;;;12.20;99.90;;;;;;5074362;28;20266;-58
2021/12/24 02:03:04;;;;;;;3.20;2.00;;;12.20;99.90;;;;;;5074126;28;20296;-58
2021/12/24 02:05:32;;;;;;;2.83;2.00;;;12.20;99.90;;;;;;5073600;28;20208;-58
2021/12/24 02:07:59;;;;;;;3.30;2.20;;;12.20;99.90;;;;;;5073530;28;20264;-58
2021/12/24 02:10:26;;;;;;;2.10;1.80;;;12.20;99.90;;;;;;5073837;28;20201;-58
2021/12/24 02:12:54;;;;;;;3.57;2.20;;;12.20;99.90;;;;;;5073526;28;20258;-58
2021/12/24 02:15:29;;;;;;;2.77;2.00;;;12.30;99.90;;;;;;5073983;28;20205;-58
2021/12/24 02:18:36;;;;;;;3.50;1.90;;;12.30;99.90;;;;;;5073444;28;20315;-58
2021/12/24 02:29:17;;;;;;;2.63;2.07;;;12.20;99.90;;;;;;5073337;28;20247;-58
2021/12/24 02:31:44;;;;;;;4.57;2.10;;;12.20;99.90;;;;;;5073189;28;20204;-58
2021/12/24 02:34:11;;;;;;;2.40;1.90;;;12.20;99.90;;;;;;5073427;28;20244;-58
2021/12/24 02:36:39;;;;;;;3.33;2.17;;;12.10;99.90;;;;;;5073200;28;20205;-58
2021/12/24 02:39:06;;;;;;;2.87;2.13;;;12.20;99.90;;;;;;5073259;28;20639;-58
2021/12/24 02:41:33;;;;;;;3.60;2.20;;;12.10;99.90;;;;;;5072438;28;20213;-58
2021/12/24 02:44:00;;;;;;;4.40;2.37;;;12.10;99.90;;;;;;5073328;28;20208;-58
2021/12/24 02:46:32;;;;;;;2.97;2.00;;;12.10;99.90;;;;;;5072937;28;20216;-58
2021/12/24 02:49:06;;;;;;;2.33;2.00;;;12.10;99.90;;;;;;5072842;28;20225;-58
2021/12/24 02:54:21;;;;;;;3.60;2.17;;;12.10;99.90;;;;;;5072869;28;20204;-58
2021/12/24 02:56:51;;;;;;;4.40;1.90;;;12.20;99.90;;;;;;5073073;28;20217;-58
2021/12/24 02:59:24;;;;;;;3.27;1.93;;;12.30;99.90;;;;;;5072784;28;20294;-58
2021/12/24 03:01:52;;;;;;;2.73;2.00;;;12.30;99.90;;;;;;5073017;28;20265;-58
2021/12/24 03:04:19;;;;;;;4.20;2.27;;;12.40;99.90;;;;;;5072803;28;20235;-58
2021/12/24 03:06:50;;;;;;;2.70;2.03;;;12.40;99.90;;;;;;5072520;28;20200;-57
2021/12/24 03:09:18;;;;;;;3.23;2.20;;;12.40;99.90;;;;;;5072576;28;20248;-60
2021/12/24 03:11:48;;;;;;;2.47;2.07;;;12.40;99.90;;;;;;5072938;28;20205;-58
2021/12/24 03:14:19;;;;;;;2.67;1.97;;;12.50;99.90;;;;;;5072536;28;20216;-58
2021/12/24 03:16:50;;;;;;;3.80;2.00;;;12.50;99.90;;;;;;5072325;28;20220;-58
2021/12/24 03:19:19;;;;;;;4.17;2.33;;;12.50;99.90;;;;;;5072342;28;20410;-58
2021/12/24 03:21:52;;;;;;;4.83;1.90;;;12.40;99.90;;;;;;5072338;28;20212;-58
2021/12/24 03:24:37;;;;;;;4.03;2.30;;;12.40;99.90;;;;;;5072608;28;20244;-58
2021/12/24 03:27:08;;;;;;;2.40;1.70;;;12.50;99.90;;;;;;5072144;28;20201;-58
2021/12/24 03:29:35;;;;;;;2.90;1.80;;;12.50;99.90;;;;;;5072268;28;20231;-59
2021/12/24 03:32:01;;;;;;;3.37;2.60;;;12.40;99.90;;;;;;5072092;28;20330;-59
2021/12/24 03:34:28;;;;;;;3.90;2.10;;;12.40;99.90;;;;;;5072087;28;20216;-59
2021/12/24 03:36:55;;;;;;;2.27;1.63;;;12.40;99.90;;;;;;5072006;28;20269;-59
2021/12/24 03:39:22;;;;;;;3.30;2.13;;;12.40;99.90;;;;;;5072054;28;20278;-59
2021/12/24 03:41:48;;;;;;;4.07;2.30;;;12.40;99.90;;;;;;5072174;28;20717;-58
2021/12/24 03:44:18;;;;;;;3.33;1.93;;;12.50;99.90;;;;;;5072283;28;20205;-59
2021/12/24 03:46:54;;;;;;;2.80;2.13;;;12.50;99.90;;;;;;5071749;28;20208;-59
2021/12/24 03:49:32;;;;;;;3.83;2.10;;;12.40;99.90;;;;;;5072305;28;20229;-58
2021/12/24 03:52:04;;;;;;;4.97;2.00;;;12.40;99.90;;;;;;5072372;28;20239;-58
2021/12/24 03:57:16;;;;;;;2.77;1.97;;;12.30;99.90;;;;;;5071977;28;20200;-59
2021/12/24 03:59:44;;;;;;;2.60;1.87;;;12.30;99.90;;;;;;5072011;28;20232;-59
2021/12/24 04:02:11;;;;;;;5.00;1.93;;;12.40;99.90;;;;;;5071992;28;20209;-59
2021/12/24 04:04:38;;;;;;;3.47;2.10;;;12.40;99.90;;;;;;5072050;28;20239;-59
2021/12/24 04:07:06;;;;;;;4.67;1.87;;;12.40;99.90;;;;;;5071851;28;20212;-59
2021/12/24 04:09:35;;;;;;;4.50;2.33;;;12.50;99.90;;;;;;5071870;28;20232;-59
2021/12/24 04:12:02;;;;;;;3.20;1.87;;;12.50;99.90;;;;;;5072051;28;20209;-59
2021/12/24 04:14:28;;;;;;;2.80;1.97;;;12.50;99.90;;;;;;5071845;28;20239;-59
2021/12/24 04:16:56;;;;;;;3.30;2.20;;;12.40;99.90;;;;;;5071401;28;20613;-59
2021/12/24 04:24:48;;;;;;;3.57;2.30;;;12.50;99.90;;;;;;5071575;28;20236;-59
2021/12/24 04:24:58;;;;;;;2.20;2.00;;;12.50;99.90;;;;;;5071707;28;20203;-59
2021/12/24 04:27:27;;;;;;;2.87;1.97;;;12.40;99.90;;;;;;5071527;28;20213;-59
2021/12/24 04:30:02;;;;;;;4.50;1.97;;;12.40;99.90;;;;;;5071537;28;20228;-59
2021/12/24 04:32:40;;;;;;;5.83;4.00;;;12.40;99.90;;;;;;5071530;28;20655;-59
2021/12/24 04:35:19;;;;;;;3.60;2.77;;;12.40;99.90;;;;;;5071727;28;20205;-59
2021/12/24 04:51:40;;;;;;;3.70;2.13;;;12.40;99.90;;;;;;5071620;28;20208;-59
2021/12/24 05:02:34;;;;;;;2.50;2.00;;;12.40;99.90;;;;;;5071552;28;20636;-59
2021/12/24 05:05:10;;;;;;;2.33;1.57;;;12.30;99.90;;;;;;5072029;28;20209;-59
2021/12/24 05:10:18;;;;;;;2.60;2.20;;;12.20;99.90;;;;;;5097545;22;20235;-57
2021/12/24 05:12:45;;;;;;;3.57;1.80;;;12.30;99.90;;;;;;5074609;28;20200;-58
2021/12/24 05:15:11;;;;;;;2.83;1.80;;;12.20;99.90;;;;;;5074652;28;20209;-58
2021/12/24 05:17:52;;;;;;;2.40;1.80;;;12.30;99.90;;;;;;5074533;28;20201;-59
2021/12/24 05:23:05;;;;;;;3.23;2.20;;;12.10;99.90;;;;;;5074710;28;20262;-58
2021/12/24 05:25:32;;;;;;;2.83;1.80;;;12.10;99.90;;;;;;5074316;28;20251;-58
2021/12/24 05:27:58;;;;;;;5.47;1.90;;;12.10;99.90;;;;;;5074452;28;20338;-58
2021/12/24 05:30:25;;;;;;;3.10;2.00;;;12.10;99.90;;;;;;5074185;28;20228;-58
2021/12/24 05:32:52;;;;;;;3.50;2.00;;;12.20;99.90;;;;;;5074257;28;20610;-57
2021/12/24 05:35:20;;;;;;;3.40;2.03;;;12.10;99.90;;;;;;5074497;28;20204;-58
2021/12/24 05:37:47;;;;;;;2.47;2.00;;;12.10;99.90;;;;;;5074076;28;20204;-59
2021/12/24 05:40:14;;;;;;;3.10;1.90;;;12.10;99.90;;;;;;5074109;28;20286;-58
2021/12/24 05:42:41;;;;;;;3.37;1.80;;;12.20;99.90;;;;;;5074257;28;20209;-58
2021/12/24 05:45:10;;;;;;;1.90;1.70;;;12.30;99.90;;;;;;5074080;28;20259;-58
2021/12/24 05:47:37;;;;;;;2.33;1.90;;;12.30;99.90;;;;;;5073787;28;20519;-57
2021/12/24 05:50:06;;;;;;;3.33;2.00;;;12.30;99.90;;;;;;5074239;28;20217;-58
2021/12/24 05:52:35;;;;;;;3.03;2.03;;;12.20;99.90;;;;;;5074349;28;20316;-59
2021/12/24 05:55:02;;;;;;;4.43;2.00;;;12.20;99.90;;;;;;5074185;28;20209;-58
2021/12/24 05:57:29;;;;;;;4.00;2.30;;;12.10;99.90;;;;;;5073747;28;20204;-57
2021/12/24 05:59:55;;;;;;;3.30;2.20;;;12.10;99.90;;;;;;5073634;28;20233;-59
2021/12/24 06:02:22;;;;;;;2.47;2.10;;;12.00;99.90;;;;;;5073848;28;20208;-57
2021/12/24 06:04:49;;;;;;;4.80;3.63;;;11.90;99.90;;;;;;5073580;28;20699;-57
2021/12/24 06:07:15;;;;;;;4.63;2.13;;;12.00;99.90;;;;;;5073761;28;20243;-58
2021/12/24 06:09:43;;;;;;;4.83;2.23;;;12.00;99.90;;;;;;5073658;28;20236;-58
2021/12/24 06:12:11;;;;;;;3.40;2.13;;;12.00;99.90;;;;;;5073647;28;20204;-58
2021/12/24 06:14:39;;;;;;;2.87;1.90;;;12.00;99.90;;;;;;5073293;28;20209;-58
2021/12/24 06:17:10;;;;;;;2.17;1.97;;;12.10;99.90;;;;;;5073393;28;20207;-58
2021/12/24 06:19:37;;;;;;;3.43;2.20;;;12.20;99.90;;;;;;5073536;28;20308;-57
2021/12/24 06:22:04;;;;;;;3.60;2.20;;;12.30;99.90;;;;;;5073540;28;20204;-58
2021/12/24 06:24:31;;;;;;;3.13;2.33;;;12.30;99.90;;;;;;5073764;28;20205;-57
2021/12/24 06:26:59;;;;;;;3.77;2.20;;;12.30;99.90;;;;;;5073388;28;20211;-57
2021/12/24 06:29:25;;;;;;;7.57;3.00;;;12.30;99.90;;;;;;5073155;28;20228;-57
2021/12/24 06:31:52;;;;;;;3.13;2.10;;;12.30;99.90;;;;;;5073374;28;20220;-57
2021/12/24 06:34:20;;;;;;;5.30;2.70;;;12.40;99.90;;;;;;5073152;28;20688;-58
2021/12/24 06:36:48;;;;;;;5.43;2.60;;;12.40;99.90;;;;;;5072933;28;20208;-57
2021/12/24 06:39:16;;;;;;;5.00;2.50;;;12.50;99.90;;;;;;5072945;28;20232;-58
2021/12/24 06:41:43;;;;;;;3.13;2.40;;;12.60;99.90;;;;;;5072906;28;20213;-58
2021/12/24 06:44:12;;;;;;;2.93;2.10;;;12.60;99.90;;;;;;5073124;28;20208;-58
2021/12/24 06:46:40;;;;;;;4.47;3.07;;;12.70;99.90;;;;;;5072775;28;20211;-57
2021/12/24 06:49:07;;;;;;;3.20;2.50;;;12.70;99.90;;;;;;5072867;28;20750;-58
2021/12/24 06:51:34;;;;;;;2.93;2.27;;;12.70;99.90;;;;;;5072827;28;20205;-58
2021/12/24 06:54:01;;;;;;;6.70;5.13;;;12.70;99.90;;;;;;5073322;28;20215;-58
2021/12/24 06:56:28;;;;;;;5.30;2.40;;;12.70;99.90;;;;;;5072431;28;20677;-57
2021/12/24 06:58:54;;;;;;;4.50;2.00;;;12.70;99.90;;;;;;5072644;28;20236;-58
2021/12/24 07:01:22;;;;;;;3.97;3.10;;;12.60;99.90;;;;;;5073121;28;20231;-59
2021/12/24 07:03:49;;;;;;;5.30;2.50;;;12.60;99.90;;;;;;5072709;28;20216;-57
2021/12/24 07:06:16;;;;;;;3.60;2.40;;;12.50;99.90;;;;;;5072579;28;20217;-57
2021/12/24 07:08:43;;;;;;;3.27;2.10;;;12.50;99.90;;;;;;5072445;28;20272;-57
2021/12/24 07:11:10;;;;;;;3.93;2.17;;;12.50;99.90;;;;;;5072695;28;20208;-57
2021/12/24 07:13:37;;;;;;;2.80;2.30;;;12.40;99.90;;;;;;5072235;28;20212;-58
2021/12/24 07:16:04;;;;;;;4.50;2.17;;;12.40;99.90;;;;;;5072519;28;20209;-58
2021/12/24 07:18:32;;;;;;;3.80;2.60;;;12.40;99.90;;;;;;5072431;28;20232;-58
2021/12/24 07:20:59;;;;;;;5.33;2.50;;;12.30;99.90;;;;;;5072744;28;20281;-58
2021/12/24 07:23:26;;;;;;;3.67;2.70;;;12.30;99.90;;;;;;5072523;28;20205;-58
2021/12/24 07:25:52;;;;;;;4.80;2.40;;;12.30;99.90;;;;;;5072116;28;20612;-58
2021/12/24 07:28:19;;;;;;;3.67;2.53;;;12.30;99.90;;;;;;5071967;28;20216;-59
2021/12/24 07:30:46;;;;;;;4.77;2.93;;;12.30;99.90;;;;;;5072530;28;20250;-57
2021/12/24 07:33:14;;;;;;;3.87;2.30;;;12.40;99.90;;;;;;5072198;28;20216;-57
2021/12/24 07:35:43;;;;;;;3.40;2.83;;;12.40;99.90;;;;;;5072004;28;20251;-57
2021/12/24 07:38:13;;;;;;;3.67;2.80;;;12.40;99.90;;;;;;5072323;28;20232;-58
2021/12/24 07:40:40;;;;;;;3.43;2.43;;;12.50;99.90;;;;;;5072280;28;20228;-58
2021/12/24 07:43:07;;;;;;;5.20;2.77;;;12.50;99.90;;;;;;5072484;28;20215;-57
2021/12/24 07:45:33;;;;;;;4.30;3.00;;;12.50;99.90;;;;;;5072300;28;20592;-57
2021/12/24 07:48:10;;;;;;;3.63;2.57;;;12.60;99.90;;;;;;5072074;28;20212;-58
2021/12/24 07:53:23;;;;;;;8.00;2.80;;;12.60;99.90;;;;;;5072276;28;20203;-57
2021/12/24 07:55:50;;;;;;;5.47;3.10;;;12.60;99.90;;;;;;5071813;28;20588;-56
2021/12/24 07:58:18;;;;;;;3.77;2.90;;;12.70;99.90;;;;;;5071806;28;20205;-58
2021/12/24 08:00:45;;;;;;;6.27;2.80;;;12.70;99.90;;;;;;5072042;28;20248;-57
2021/12/24 08:03:12;;;;;;;3.30;2.77;;;12.70;99.90;;;;;;5072040;28;20208;-58
2021/12/24 08:05:41;;;;;;;4.80;3.30;;;12.70;99.90;;;;;;5072073;28;20228;-58
2021/12/24 08:08:10;;;;;;;4.10;2.60;;;12.80;99.90;;;;;;5071866;28;20200;-57
2021/12/24 08:10:41;;;;;;;3.63;2.70;;;12.70;99.90;;;;;;5071529;28;20217;-58
2021/12/24 08:13:08;;;;;;;3.60;2.30;;;12.70;99.90;;;;;;5071737;28;20202;-57
2021/12/24 08:15:34;;;;;;;3.47;2.90;;;12.70;99.90;;;;;;5071526;28;20204;-58
2021/12/24 08:18:01;;;;;;;5.53;2.80;;;12.70;99.90;;;;;;5071729;28;20205;-56
2021/12/24 08:20:28;;;;;;;5.07;2.60;;;12.70;99.90;;;;;;5071550;28;20607;-57
2021/12/24 08:22:56;;;;;;;2.97;2.60;;;12.60;99.90;;;;;;5071575;28;20212;-58
2021/12/24 08:25:23;;;;;;;4.53;2.70;;;12.60;99.90;;;;;;5071547;28;20212;-57
2021/12/24 08:27:52;;;;;;;5.83;2.83;;;12.60;99.90;;;;;;5071142;28;20248;-57
2021/12/24 08:30:19;;;;;;;4.47;2.70;;;12.60;99.90;;;;;;5071653;28;20480;-57
2021/12/24 08:32:46;;;;;;;4.83;2.43;;;12.60;99.90;;;;;;5071752;28;20566;-58
2021/12/24 08:35:16;;;;;;;5.33;2.67;;;12.50;99.90;;;;;;5071667;28;20204;-57
2021/12/24 08:37:43;;;;;;;2.90;2.20;;;12.50;99.90;;;;;;5071185;28;20212;-57
2021/12/24 08:40:11;;;;;;;3.33;2.33;;;12.50;99.90;;;;;;5072461;28;20232;-58
2021/12/24 08:42:38;;;;;;;3.53;2.40;;;12.50;99.90;;;;;;5075476;28;20258;-57
2021/12/24 08:45:08;;;;;;;3.77;2.37;;;12.50;99.90;;;;;;5075362;28;20567;-57
2021/12/24 08:47:35;;;;;;;3.13;2.27;;;12.50;99.90;;;;;;5075081;28;20207;-58
2021/12/24 08:50:01;;;;;;;3.30;2.30;;;12.50;99.90;;;;;;5075067;28;20221;-59
2021/12/24 08:52:28;;;;;;;3.73;2.13;;;12.50;99.90;;;;;;5075038;28;20303;-57
2021/12/24 08:54:55;;;;;;;3.90;2.40;;;12.50;99.90;;;;;;5074942;28;20615;-57
2021/12/24 08:57:21;;;;;;;3.80;2.27;;;12.50;99.90;;;;;;5074947;28;20201;-59
2021/12/24 08:59:48;;;;;;;4.03;2.50;;;12.50;99.90;;;;;;5074857;28;20229;-57
2021/12/24 09:02:17;;;;;;;3.57;2.30;;;12.60;99.90;;;;;;5074812;28;20237;-57
2021/12/24 09:04:43;;;;;;;4.37;2.83;;;12.50;99.90;;;;;;5074945;28;20278;-57
2021/12/24 09:07:10;;;;;;;3.23;2.63;;;12.60;99.90;;;;;;5074713;28;20205;-57
2021/12/24 09:09:37;;;;;;;4.53;2.63;;;12.60;99.90;;;;;;5074715;28;20671;-58
2021/12/24 09:12:05;;;;;;;2.93;2.13;;;12.70;99.90;;;;;;5074783;28;20566;-59
2021/12/24 09:14:32;;;;;;;3.73;2.20;;;12.70;99.90;;;;;;5074810;28;20239;-58
2021/12/24 09:17:02;;;;;;;5.07;2.53;;;12.80;99.90;;;;;;5074619;28;20209;-57
2021/12/24 09:19:31;;;;;;;2.77;2.23;;;12.90;99.90;;;;;;5074536;28;20742;-57
2021/12/24 09:21:58;;;;;;;3.60;2.20;;;12.80;99.90;;;;;;5074507;28;20228;-58
2021/12/24 09:24:28;;;;;;;4.40;2.73;;;12.80;99.90;;;;;;5074869;28;20212;-57
2021/12/24 09:26:57;;;;;;;3.90;2.80;;;12.80;99.90;;;;;;5074262;28;20205;-58
2021/12/24 09:29:24;;;;;;;3.37;2.27;;;12.90;99.90;;;;;;5074948;28;20232;-57
2021/12/24 09:31:51;;;;;;;2.90;2.33;;;12.90;99.90;;;;;;5074847;28;20692;-60
2021/12/24 09:34:18;;;;;;;3.23;2.40;;;12.90;99.90;;;;;;5074859;28;20209;-56
2021/12/24 09:36:46;;;;;;;2.77;2.30;;;12.90;99.90;;;;;;5074799;28;20213;-59
2021/12/24 09:39:14;;;;;;;4.23;2.60;;;12.90;99.90;;;;;;5074986;28;20227;-58
2021/12/24 09:41:40;;;;;;;3.43;2.20;;;12.90;99.90;;;;;;5074733;28;20307;-58
2021/12/24 09:44:08;;;;;;;4.33;2.63;;;13.10;99.90;;;;;;5074710;28;20204;-56
2021/12/24 09:46:36;;;;;;;3.83;2.60;;;13.30;99.90;;;;;;5074524;28;20204;-58
2021/12/24 09:49:03;;;;;;;3.03;2.40;;;13.40;99.90;;;;;;5074291;28;20235;-57
2021/12/24 09:51:37;;;;;;;4.50;3.07;;;13.30;99.90;;;;;;5073945;28;20205;-58
2021/12/24 09:54:10;;;;;;;3.87;2.30;;;13.30;99.90;;;;;;5074553;28;20680;-58
2021/12/24 09:56:37;;;;;;;3.80;2.07;;;13.30;99.90;;;;;;5074055;28;20262;-58
2021/12/24 09:59:04;;;;;;;3.17;2.40;;;13.20;99.90;;;;;;5074338;28;20743;-57
2021/12/24 10:01:34;;;;;;;3.33;2.17;;;13.10;99.90;;;;;;5074104;28;20252;-58
2021/12/24 10:04:08;;;;;;;3.23;2.13;;;13.10;99.90;;;;;;5074877;28;20216;-57
2021/12/24 10:06:35;;;;;;;2.60;2.10;;;13.00;99.90;;;;;;5074436;28;20209;-59
2021/12/24 10:09:08;;;;;;;3.53;2.40;;;12.90;99.90;;;;;;5073874;28;20233;-60
2021/12/24 10:11:48;;;;;;;4.40;2.57;;;12.80;99.90;;;;;;5071500;28;20649;-57
2021/12/24 10:14:17;;;;;;;4.03;2.47;;;12.70;99.90;;;;;;5073939;28;20193;-57
2021/12/24 10:16:45;;;;;;;5.20;2.40;;;12.60;99.90;;;;;;5073464;28;20243;-59
2021/12/24 10:19:13;;;;;;;3.27;2.60;;;12.50;99.90;;;;;;5073740;28;20270;-59
2021/12/24 10:21:40;;;;;;;4.60;2.83;;;12.50;99.90;;;;;;5073064;28;20224;-59
2021/12/24 10:24:14;;;;;;;4.33;2.63;;;12.50;99.90;;;;;;5073149;28;20669;-63
2021/12/24 10:26:45;;;;;;;4.10;2.90;;;12.50;99.90;;;;;;5073119;28;20209;-65
2021/12/24 10:29:14;;;;;;;7.30;6.10;;;12.40;99.90;;;;;;5073454;28;20240;-64
2021/12/24 10:31:43;;;;;;;4.67;3.23;;;12.40;99.90;;;;;;5073410;28;20208;-64
2021/12/24 10:34:20;;;;;;;7.07;2.97;;;12.40;99.90;;;;;;5073302;28;20205;-66
2021/12/24 10:37:12;;;;;;;5.70;3.00;;;12.40;99.90;;;;;;5072783;28;20204;-64
2021/12/24 10:39:43;;;;;;;3.87;2.60;;;12.40;99.90;;;;;;5073067;28;20225;-63
2021/12/24 10:42:16;;;;;;;4.07;2.50;;;12.40;99.90;;;;;;5073459;28;20270;-61
2021/12/24 10:44:45;;;;;;;8.00;4.00;;;12.40;99.90;;;;;;5073241;28;20209;-62
2021/12/24 10:47:15;;;;;;;5.60;3.00;;;12.40;99.90;;;;;;5073221;28;20213;-60
2021/12/24 10:55:30;;;;;;;4.70;3.00;;;12.20;99.90;;;;;;5073417;28;20199;-60
2021/12/24 10:58:00;;;;;;;5.97;2.90;;;12.20;99.90;;;;;;5073199;28;20695;-60
2021/12/24 11:00:32;;;;;;;5.43;3.40;;;12.30;99.90;;;;;;5072916;28;20252;-61
2021/12/24 11:03:01;;;;;;;4.03;3.37;;;12.30;99.90;;;;;;5072133;28;20633;-60
2021/12/24 11:05:32;;;;;;;2.73;2.30;;;12.20;99.90;;;;;;5072920;28;20216;-60
2021/12/24 11:07:59;;;;;;;3.50;2.77;;;12.20;99.90;;;;;;5072452;28;20205;-61
2021/12/24 11:10:29;;;;;;;3.53;2.47;;;12.30;99.90;;;;;;5071115;23;20287;-58
2021/12/24 11:12:57;;;;;;;4.30;3.10;;;12.30;99.90;;;;;;5048354;28;20198;-58
2021/12/24 11:15:28;;;;;;;2.90;2.40;;;12.40;99.90;;;;;;5053073;28;20691;-58
2021/12/24 11:17:56;;;;;;;4.07;2.43;;;12.40;99.90;;;;;;5053009;28;20213;-58
2021/12/24 11:20:23;;;;;;;3.20;2.30;;;12.40;99.90;;;;;;5053424;28;20639;-61
2021/12/24 11:22:56;;;;;;;8.37;3.30;;;12.40;99.90;;;;;;5052798;28;20227;-58
2021/12/24 11:25:25;;;;;;;4.20;2.70;;;12.50;99.90;;;;;;5053044;28;20213;-58
2021/12/24 11:27:53;;;;;;;3.50;2.53;;;12.50;99.90;;;;;;5052628;28;20228;-58
2021/12/24 11:30:22;;;;;;;3.50;2.30;;;12.50;99.90;;;;;;5052679;28;20226;-58
2021/12/24 11:32:49;;;;;;;4.57;2.60;;;12.60;99.90;;;;;;5052580;28;20238;-58
2021/12/24 11:35:18;;;;;;;3.53;2.50;;;12.60;99.90;;;;;;5052820;28;20206;-58
2021/12/24 11:37:47;;;;;;;2.90;2.33;;;12.50;99.90;;;;;;5052455;28;20209;-58
2021/12/24 11:40:16;;;;;;;3.70;2.10;;;12.50;99.90;;;;;;5052315;28;20704;-58
2021/12/24 11:42:44;;;;;;;3.77;2.60;;;12.60;99.90;;;;;;5052895;28;20599;-58
2021/12/24 11:45:12;;;;;;;2.90;2.20;;;12.50;99.90;;;;;;5052453;28;20208;-58
2021/12/24 11:47:39;;;;;;;2.77;2.07;;;12.50;99.90;;;;;;5052432;28;20212;-57
2021/12/24 11:50:07;;;;;;;2.90;2.17;;;12.50;99.90;;;;;;5052122;28;20229;-57
2021/12/24 11:52:34;;;;;;;3.87;1.90;;;12.50;99.90;;;;;;5052875;28;20202;-57
2021/12/24 11:55:01;;;;;;;3.27;2.20;;;12.60;99.90;;;;;;5052506;28;20210;-57
2021/12/24 11:57:28;;;;;;;2.70;2.27;;;12.60;99.90;;;;;;5052410;28;20205;-58
2021/12/24 11:59:55;;;;;;;3.80;1.97;;;12.60;99.90;;;;;;5052340;28;20240;-57
2021/12/24 12:02:38;;;;;;;3.30;2.37;;;12.60;99.90;;;;;;5052183;28;20229;-58
2021/12/24 12:05:16;;;;;;;2.97;2.00;;;12.60;99.90;;;;;;5052311;28;20251;-57
2021/12/24 12:07:43;;;;;;;2.23;1.80;;;12.70;99.90;;;;;;5052613;28;20240;-58
2021/12/24 12:10:10;;;;;;;4.63;2.20;;;12.70;99.90;;;;;;5051980;28;20252;-57
2021/12/24 12:12:38;;;;;;;2.17;1.60;;;12.80;99.90;;;;;;5052251;28;20256;-57
2021/12/24 12:15:27;;;;;;;4.47;2.67;;;12.90;99.90;;;;;;5054744;28;20209;-57
2021/12/24 12:17:59;;;;;;;3.23;1.77;;;12.90;99.90;;;;;;5055995;28;20205;-58
2021/12/24 12:20:45;;;;;;;3.23;2.10;;;13.00;99.90;;;;;;5056047;28;20651;-58
2021/12/24 12:23:53;;;;;;;4.40;3.27;;;13.00;99.90;;;;;;5055881;28;20228;-57
2021/12/24 12:26:37;;;;;;;4.53;1.97;;;13.00;99.90;;;;;;5056090;28;20205;-57
2021/12/24 12:29:25;;;;;;;2.57;1.70;;;13.00;99.90;;;;;;5056108;28;20229;-58
2021/12/24 12:31:54;;;;;;;3.23;1.70;;;13.10;99.90;;;;;;5056051;28;20228;-57
2021/12/24 12:34:51;;;;;;;3.03;1.60;;;13.20;99.90;;;;;;5056118;28;20260;-58
2021/12/24 12:37:20;;;;;;;3.47;1.70;;;13.20;99.90;;;;;;5055750;28;20205;-59
2021/12/24 12:39:49;;;;;;;2.80;1.70;;;13.30;99.90;;;;;;5055784;28;20448;-59
2021/12/24 12:42:17;;;;;;;1.97;1.30;;;13.40;99.90;;;;;;5055376;28;20286;-59
2021/12/24 12:44:47;;;;;;;3.87;1.60;;;13.50;99.90;;;;;;5056246;28;20647;-59
2021/12/24 12:47:16;;;;;;;2.10;1.90;;;13.60;99.90;;;;;;5055587;28;20259;-59
2021/12/24 12:49:43;;;;;;;4.50;1.60;;;13.50;99.90;;;;;;5057016;28;20225;-59
2021/12/24 12:52:22;;;;;;;3.50;1.43;;;13.50;99.90;;;;;;5056867;28;20214;-59
2021/12/24 12:54:50;;;;;;;3.10;1.73;;;13.50;99.90;;;;;;5055920;28;20216;-60
2021/12/24 12:57:23;;;;;;;6.77;5.70;;;13.40;99.90;;;;;;5055669;28;20247;-59
2021/12/24 13:00:19;;;;;;;1.80;1.47;;;13.40;99.90;;;;;;5055606;28;20222;-58
2021/12/24 13:03:09;;;;;;;2.47;1.30;;;13.30;99.90;;;;;;5055394;28;20233;-59
2021/12/24 13:06:09;;;;;;;2.23;1.30;;;13.20;99.90;;;;;;5055165;28;20209;-58
2021/12/24 13:08:41;;;;;;;1.93;1.40;;;13.20;99.90;;;;;;5054646;28;20210;-58
2021/12/24 13:11:10;;;;;;;3.83;1.50;;;13.20;99.90;;;;;;5054892;28;20201;-59
2021/12/24 13:13:53;;;;;;;2.97;1.90;;;13.10;99.90;;;;;;5055206;28;20205;-59
2021/12/24 13:16:23;;;;;;;4.00;1.50;;;13.10;99.90;;;;;;5054444;28;20212;-58
2021/12/24 13:18:57;;;;;;;3.80;1.70;;;13.10;99.90;;;;;;5054889;28;20317;-58
2021/12/24 13:24:15;;;;;;;2.53;1.40;;;13.10;99.90;;;;;;5054702;28;20235;-58
2021/12/24 13:26:42;;;;;;;2.97;2.00;;;13.00;99.90;;;;;;5053811;28;20201;-59
2021/12/24 13:29:16;;;;;;;1.47;1.23;;;13.00;99.90;;;;;;5054564;28;20256;-58
2021/12/24 13:31:51;;;;;;;4.10;1.37;;;12.90;99.90;;;;;;5054391;28;20205;-58
2021/12/24 13:34:18;;;;;;;3.80;2.10;;;12.90;99.90;;;;;;5054459;28;20300;-60
2021/12/24 13:36:45;;;;;;;4.80;1.70;;;12.90;99.90;;;;;;5045580;28;20253;-64
2021/12/24 13:39:16;;;;;;;1.40;1.20;;;12.80;99.90;;;;;;5034452;28;20712;-58
2021/12/24 13:41:44;;;;;;;1.90;1.40;;;12.90;99.90;;;;;;5034146;28;20670;-60
2021/12/24 13:44:21;;;;;;;1.80;1.50;;;12.90;99.90;;;;;;5034177;28;20666;-60
2021/12/24 13:46:59;;;;;;;3.40;1.70;;;13.00;99.90;;;;;;5033775;28;20261;-60
2021/12/24 13:49:41;;;;;;;2.20;1.50;;;13.00;99.90;;;;;;5034250;28;20226;-61
2021/12/24 13:54:53;;;;;;;1.50;1.20;;;13.00;99.90;;;;;;5034062;28;20300;-62
2021/12/24 13:57:21;;;;;;;1.63;1.27;;;12.90;99.90;;;;;;5033997;28;20629;-63
2021/12/24 13:59:52;;;;;;;1.43;1.03;;;12.90;99.90;;;;;;5034330;28;20233;-60
2021/12/24 14:02:19;;;;;;;1.70;1.30;;;12.80;99.90;;;;;;5034167;28;20749;-62
2021/12/24 14:04:45;;;;;;;2.70;1.30;;;12.80;99.90;;;;;;5034662;28;20206;-61
2021/12/24 14:07:12;;;;;;;1.20;1.00;;;12.80;99.90;;;;;;5033643;28;20208;-61
2021/12/24 14:09:39;;;;;;;1.77;1.53;;;12.80;99.90;;;;;;5033949;28;20655;-60
2021/12/24 14:12:09;;;;;;;2.10;1.30;;;12.90;99.90;;;;;;5035026;28;20218;-61
2021/12/24 14:14:48;;;;;;;3.07;1.97;;;12.90;99.90;;;;;;5034074;28;20225;-61
2021/12/24 14:17:38;;;;;;;2.47;1.30;;;12.80;99.90;;;;;;5034365;28;20240;-61
2021/12/24 14:20:15;;;;;;;2.93;1.90;;;12.80;99.90;;;;;;5034128;28;20229;-58